KRN weather

Kiruna Airport
Kiruna, Norrbottena län, Sweden

Public forecast

Using degrees Celsius for public forecast. Weather courtesy of forecast.io.

Current aviation weather report (METAR) for Kiruna Airport

Retrieved 2020/06/01 22:50 UTC (28 minutes ago):

ESNQ 012250Z AUTO 23004KT 9999 R03///// R21/P1500N // ///////// 10/05 Q1020

Aviation forecast (TAF) for Kiruna Airport

Forecast is more than 12 hours old.

Retrieved 2018/12/09 21:15 UTC (1 year ago):

TAF TAF ESNQ 092030Z 0921/1014 01005KT 9999 OVC010 TEMPO 0921/0924 1200 SN VV004